Butes — A8UR6 — position and weather

sailwx.info

Track history (hours):
 
Tides and Currents Weather Stations Pressure Air Temp Water Temp Dewpoint Dewpoint Depression Visibility Wind Speed Wind Dir Waves Ship Positions

Butes

Last reported at 2016-May-28 09:33 UTC. Time now 2016-May-28 09:59 UTC.
Position N 51°03' E 002°20'.

Length 90 m; draft 3.3 m.

Type: Cargo ship. MMSI: 636091937.

Date/timePositionNaut miles runAvg speedWind from/ knotsBaromVisibWave heightAir tempDewpointWater temp
2016-May-28 09:33N 51°03' E 002°20'1 1.1
2016-May-28 08:33N 51°04' E 002°22'8 6.6
2016-May-28 07:24N 51°03' E 002°10'8 9.3
2016-May-28 06:33N 51°02' E 001°57'4 4.4
2016-May-28 05:33N 51°04' E 001°51'0 0.0
2016-May-28 04:33N 51°04' E 001°51'0 0.0
2016-May-28 03:33N 51°04' E 001°51'0 0.0
2016-May-28 02:30N 51°04' E 001°51'0 0.1
2016-May-28 00:06N 51°04' E 001°50'0 0.0
2016-May-27 23:33N 51°04' E 001°50'0 0.0
2016-May-27 20:21N 51°04' E 001°50'0 0.0
2016-May-27 19:33N 51°04' E 001°50'0 0.1
2016-May-27 18:33N 51°04' E 001°50'0 0.1
2016-May-27 17:33N 51°04' E 001°51'0 0.0
2016-May-27 16:33N 51°04' E 001°51'0 0.0
2016-May-27 15:30N 51°04' E 001°51'0 0.0
2016-May-27 14:33N 51°04' E 001°51'0 0.2
2016-May-27 13:33N 51°04' E 001°50'0 0.0
2016-May-27 06:33N 51°04' E 001°50'0 0.1
2016-May-27 05:24N 51°04' E 001°51'0 0.0
2016-May-27 04:30N 51°04' E 001°51'0 0.0
2016-May-27 03:33N 51°04' E 001°51'0 0.0
2016-May-27 02:33N 51°04' E 001°51'0 0.0
2016-May-27 01:24N 51°04' E 001°51'0 0.2
2016-May-27 00:33N 51°04' E 001°50'0 0.0
2016-May-26 23:18N 51°04' E 001°50'0 0.0
2016-May-26 21:18N 51°04' E 001°50'0 0.1
2016-May-26 20:33N 51°04' E 001°50'7 7.3
2016-May-26 19:33N 51°01' E 001°40'1110.5
2016-May-26 18:32N 50°53' E 001°29'1111.4
2016-May-26 17:32N 50°42' E 001°22'4911.2
2016-May-26 13:09N 50°20' E 000°14'712.7
2016-May-26 12:34N 50°18' E 000°02'1313.4
2016-May-26 11:34N 50°15' W 000°18'1414.0
2016-May-26 10:33N 50°11' W 000°39'12910.6
2016-May-25 22:24N 49°50' W 003°57'243 9.0
2016-May-24 19:31N 53°42' W 005°54'1311.9
2016-May-24 18:27N 53°55' W 005°60'  
2016-May-21 17:20N 54°02' W 006°08'188 7.9
2016-May-20 17:33N 51°34' W 002°58'0 0.0
2016-May-20 12:31N 51°34' W 002°58'0 0.0
2016-May-20 07:14N 51°34' W 002°58'0 0.0
2016-May-20 06:32N 51°34' W 002°58'0 0.0
2016-May-20 04:32N 51°34' W 002°58'0 0.0
2016-May-20 03:32N 51°34' W 002°58'0 0.0
2016-May-20 02:32N 51°34' W 002°58'0 0.0
2016-May-19 16:14N 51°34' W 002°58'0 0.0
2016-May-19 10:28N 51°34' W 002°58'0 0.0
2016-May-19 08:33N 51°34' W 002°58'0 0.0
2016-May-19 07:34N 51°34' W 002°58'0 0.0
2016-May-19 06:34N 51°34' W 002°58'0 0.0
2016-May-19 01:07N 51°34' W 002°58'0 0.0
2016-May-19 00:33N 51°34' W 002°58'0 0.0
2016-May-18 23:34N 51°34' W 002°58'0 0.0
2016-May-18 22:33N 51°34' W 002°58'0 0.0
2016-May-18 21:33N 51°34' W 002°58'0 0.0
2016-May-18 20:33N 51°34' W 002°58'0 0.0
2016-May-18 19:33N 51°34' W 002°58'0 0.0
2016-May-18 17:14N 51°34' W 002°58'1 2.1
2016-May-18 16:31N 51°32' W 002°59'  
Track history (hours):
 
Tides and Currents Weather Stations Pressure Air Temp Water Temp Dewpoint Dewpoint Depression Visibility Wind Speed Wind Dir Waves Ship Positions

Butes

Last reported at 2016-May-28 09:33 UTC. Time now 2016-May-28 09:59 UTC.
Position N 51°03' E 002°20'.

Length 90 m; draft 3.3 m.

Type: Cargo ship. MMSI: 636091937.

Date/timePositionNaut miles runAvg speedWind from/ knotsBaromVisibWave heightAir tempDewpointWater temp
2016-May-28 09:33N 51°03' E 002°20'1 1.1
2016-May-28 08:33N 51°04' E 002°22'8 6.6
2016-May-28 07:24N 51°03' E 002°10'8 9.3
2016-May-28 06:33N 51°02' E 001°57'4 4.4
2016-May-28 05:33N 51°04' E 001°51'0 0.0
2016-May-28 04:33N 51°04' E 001°51'0 0.0
2016-May-28 03:33N 51°04' E 001°51'0 0.0
2016-May-28 02:30N 51°04' E 001°51'0 0.1
2016-May-28 00:06N 51°04' E 001°50'0 0.0
2016-May-27 23:33N 51°04' E 001°50'0 0.0
2016-May-27 20:21N 51°04' E 001°50'0 0.0
2016-May-27 19:33N 51°04' E 001°50'0 0.1
2016-May-27 18:33N 51°04' E 001°50'0 0.1
2016-May-27 17:33N 51°04' E 001°51'0 0.0
2016-May-27 16:33N 51°04' E 001°51'0 0.0
2016-May-27 15:30N 51°04' E 001°51'0 0.0
2016-May-27 14:33N 51°04' E 001°51'0 0.2
2016-May-27 13:33N 51°04' E 001°50'0 0.0
2016-May-27 06:33N 51°04' E 001°50'0 0.1
2016-May-27 05:24N 51°04' E 001°51'0 0.0
2016-May-27 04:30N 51°04' E 001°51'0 0.0
2016-May-27 03:33N 51°04' E 001°51'0 0.0
2016-May-27 02:33N 51°04' E 001°51'0 0.0
2016-May-27 01:24N 51°04' E 001°51'0 0.2
2016-May-27 00:33N 51°04' E 001°50'0 0.0
2016-May-26 23:18N 51°04' E 001°50'0 0.0
2016-May-26 21:18N 51°04' E 001°50'0 0.1
2016-May-26 20:33N 51°04' E 001°50'7 7.3
2016-May-26 19:33N 51°01' E 001°40'1110.5
2016-May-26 18:32N 50°53' E 001°29'1111.4
2016-May-26 17:32N 50°42' E 001°22'4911.2
2016-May-26 13:09N 50°20' E 000°14'712.7
2016-May-26 12:34N 50°18' E 000°02'1313.4
2016-May-26 11:34N 50°15' W 000°18'1414.0
2016-May-26 10:33N 50°11' W 000°39'12910.6
2016-May-25 22:24N 49°50' W 003°57'243 9.0
2016-May-24 19:31N 53°42' W 005°54'1311.9
2016-May-24 18:27N 53°55' W 005°60'  
2016-May-21 17:20N 54°02' W 006°08'188 7.9
2016-May-20 17:33N 51°34' W 002°58'0 0.0
2016-May-20 12:31N 51°34' W 002°58'0 0.0
2016-May-20 07:14N 51°34' W 002°58'0 0.0
2016-May-20 06:32N 51°34' W 002°58'0 0.0
2016-May-20 04:32N 51°34' W 002°58'0 0.0
2016-May-20 03:32N 51°34' W 002°58'0 0.0
2016-May-20 02:32N 51°34' W 002°58'0 0.0
2016-May-19 16:14N 51°34' W 002°58'0 0.0
2016-May-19 10:28N 51°34' W 002°58'0 0.0
2016-May-19 08:33N 51°34' W 002°58'0 0.0
2016-May-19 07:34N 51°34' W 002°58'0 0.0
2016-May-19 06:34N 51°34' W 002°58'0 0.0
2016-May-19 01:07N 51°34' W 002°58'0 0.0
2016-May-19 00:33N 51°34' W 002°58'0 0.0
2016-May-18 23:34N 51°34' W 002°58'0 0.0
2016-May-18 22:33N 51°34' W 002°58'0 0.0
2016-May-18 21:33N 51°34' W 002°58'0 0.0
2016-May-18 20:33N 51°34' W 002°58'0 0.0
2016-May-18 19:33N 51°34' W 002°58'0 0.0
2016-May-18 17:14N 51°34' W 002°58'1 2.1
2016-May-18 16:31N 51°32' W 002°59'  

Dump ship's entire track history